createdAt,value
2019-05-06T00:01:56.302Z,4.70
2019-05-06T00:04:26.841Z,4.30
2019-05-06T00:06:59.757Z,4.50
2019-05-06T00:09:31.035Z,4.50
2019-05-06T00:12:03.907Z,4.80
2019-05-06T00:14:35.512Z,4.80
2019-05-06T00:17:07.301Z,4.80
2019-05-06T00:19:37.905Z,4.70
2019-05-06T00:22:08.820Z,4.50
2019-05-06T00:24:46.014Z,4.80
2019-05-06T00:27:24.980Z,4.80
2019-05-06T00:29:55.613Z,4.70
2019-05-06T00:32:26.473Z,4.50
2019-05-06T00:34:58.287Z,4.70
2019-05-06T00:37:29.130Z,4.80
2019-05-06T00:40:09.175Z,4.80
2019-05-06T00:42:44.774Z,4.70
2019-05-06T00:45:17.488Z,4.80
2019-05-06T00:47:47.949Z,5.00
2019-05-06T00:50:20.006Z,4.70
2019-05-06T00:52:51.324Z,5.00
2019-05-06T00:55:24.043Z,5.00
2019-05-06T00:57:54.622Z,4.80
2019-05-06T01:00:33.737Z,5.00
2019-05-06T01:03:04.722Z,5.00
2019-05-06T01:05:35.202Z,4.90
2019-05-06T01:08:05.935Z,4.60
2019-05-06T01:10:36.438Z,4.90
2019-05-06T01:13:28.979Z,5.00
2019-05-06T01:16:01.057Z,4.70
2019-05-06T01:18:33.896Z,4.80
2019-05-06T01:21:14.548Z,4.80
2019-05-06T01:23:46.678Z,4.70
2019-05-06T01:26:17.477Z,4.70
2019-05-06T01:28:50.811Z,4.70
2019-05-06T01:31:20.912Z,4.70
2019-05-06T01:33:53.538Z,4.50
2019-05-06T01:36:24.917Z,4.80
2019-05-06T01:39:04.731Z,4.70
2019-05-06T01:41:44.675Z,4.50
2019-05-06T01:44:17.289Z,4.40
2019-05-06T01:46:51.292Z,4.40
2019-05-06T01:49:21.695Z,4.20
2019-05-06T01:51:54.403Z,4.50
2019-05-06T01:54:24.848Z,4.40
2019-05-06T01:56:57.026Z,4.40
2019-05-06T01:59:29.023Z,4.50
2019-05-06T02:02:02.228Z,4.30
2019-05-06T02:04:34.317Z,4.50
2019-05-06T02:07:05.110Z,4.40
2019-05-06T02:09:36.024Z,4.50
2019-05-06T02:12:06.486Z,4.50
2019-05-06T02:14:38.294Z,4.50
2019-05-06T02:17:09.989Z,4.30
2019-05-06T02:19:43.803Z,4.50
2019-05-06T02:22:30.378Z,4.60
2019-05-06T02:25:16.205Z,4.50
2019-05-06T02:27:46.614Z,4.00
2019-05-06T02:30:25.301Z,4.00
2019-05-06T02:33:15.161Z,4.20
2019-05-06T02:36:01.037Z,4.20
2019-05-06T02:38:39.702Z,4.00
2019-05-06T02:41:05.834Z,4.10
2019-05-06T02:43:38.761Z,4.10
2019-05-06T02:46:09.149Z,4.20
2019-05-06T02:48:49.270Z,3.90
2019-05-06T02:51:25.409Z,4.10
2019-05-06T02:53:57.591Z,4.30
2019-05-06T02:56:29.529Z,4.50
2019-05-06T02:59:00.227Z,4.50
2019-05-06T03:01:34.069Z,4.30
2019-05-06T03:04:04.745Z,4.50
2019-05-06T03:06:38.235Z,4.50
2019-05-06T03:09:13.131Z,4.70
2019-05-06T03:11:43.847Z,4.20
2019-05-06T03:14:17.012Z,4.70
2019-05-06T03:16:53.948Z,4.40
2019-05-06T03:19:24.057Z,4.80
2019-05-06T03:22:24.046Z,4.30
2019-05-06T03:25:06.307Z,4.20
2019-05-06T03:27:35.032Z,4.60
2019-05-06T03:30:06.302Z,4.40
2019-05-06T03:32:48.196Z,4.50
2019-05-06T03:35:31.108Z,4.40
2019-05-06T03:37:44.009Z,4.60
2019-05-06T03:40:14.750Z,4.30
2019-05-06T03:42:46.741Z,4.60
2019-05-06T03:45:53.774Z,4.80
2019-05-06T03:48:29.171Z,4.80
2019-05-06T03:51:04.161Z,4.80
2019-05-06T03:53:36.517Z,4.80
2019-05-06T03:56:08.150Z,4.70
2019-05-06T03:58:43.295Z,4.50
2019-05-06T04:01:13.281Z,4.60
2019-05-06T04:03:51.550Z,4.80
2019-05-06T04:06:18.957Z,4.80
2019-05-06T04:08:52.895Z,4.70
2019-05-06T04:11:23.550Z,4.50
2019-05-06T04:13:56.272Z,4.50
2019-05-06T04:16:36.678Z,4.80
2019-05-06T04:19:17.718Z,4.80
2019-05-06T04:22:03.709Z,4.80
2019-05-06T04:24:49.638Z,4.80
2019-05-06T04:27:45.683Z,4.50
2019-05-06T04:30:16.494Z,4.50
2019-05-06T04:32:48.330Z,4.50
2019-05-06T04:35:22.740Z,4.50
2019-05-06T04:37:53.534Z,4.50
2019-05-06T04:40:24.392Z,4.20
2019-05-06T04:42:55.393Z,4.60
2019-05-06T04:45:26.041Z,4.70
2019-05-06T04:47:58.838Z,4.50
2019-05-06T04:50:29.488Z,4.40
2019-05-06T04:53:05.408Z,4.80
2019-05-06T04:55:37.034Z,4.80
2019-05-06T04:58:08.706Z,4.40
2019-05-06T05:00:40.382Z,4.80
2019-05-06T05:03:14.443Z,4.70
2019-05-06T05:05:46.185Z,4.80
2019-05-06T05:08:17.672Z,5.10
2019-05-06T05:11:03.736Z,5.00
2019-05-06T05:13:53.654Z,5.10
2019-05-06T05:16:33.176Z,4.70
2019-05-06T05:19:12.174Z,4.50
2019-05-06T05:21:42.945Z,4.80
2019-05-06T05:24:14.570Z,5.10
2019-05-06T05:26:47.017Z,5.00
2019-05-06T05:29:18.640Z,4.70
2019-05-06T05:31:50.007Z,5.10
2019-05-06T05:34:22.531Z,5.00
2019-05-06T05:36:57.406Z,5.10
2019-05-06T05:39:28.552Z,5.10
2019-05-06T05:42:06.318Z,5.10
2019-05-06T05:44:38.629Z,5.30
2019-05-06T05:47:09.823Z,5.20
2019-05-06T05:49:59.348Z,5.40
2019-05-06T05:52:32.714Z,5.30
2019-05-06T05:55:03.746Z,5.30
2019-05-06T05:57:36.671Z,5.40
2019-05-06T06:00:07.303Z,5.40
2019-05-06T06:02:38.037Z,5.60
2019-05-06T06:05:08.702Z,5.40
2019-05-06T06:07:42.250Z,5.30
2019-05-06T06:10:42.702Z,5.40
2019-05-06T06:13:13.055Z,5.30
2019-05-06T06:15:54.394Z,5.40
2019-05-06T06:18:48.733Z,5.30
2019-05-06T06:21:28.754Z,5.60
2019-05-06T06:24:05.197Z,5.60
2019-05-06T06:26:37.041Z,5.60
2019-05-06T06:29:08.973Z,5.60
2019-05-06T06:31:46.844Z,5.60
2019-05-06T06:34:22.714Z,5.50
2019-05-06T06:37:13.135Z,5.50
2019-05-06T06:39:46.018Z,5.60
2019-05-06T06:42:17.999Z,5.50
2019-05-06T06:44:49.596Z,5.60
2019-05-06T06:47:22.442Z,5.60
2019-05-06T06:49:53.572Z,5.50
2019-05-06T06:52:25.552Z,5.90
2019-05-06T06:54:56.037Z,6.10
2019-05-06T06:57:51.961Z,6.00
2019-05-06T07:00:47.459Z,6.10
2019-05-06T07:03:23.402Z,6.20
2019-05-06T07:06:02.438Z,6.40
2019-05-06T07:08:37.538Z,6.50
2019-05-06T07:11:07.870Z,6.50
2019-05-06T07:13:43.005Z,6.80
2019-05-06T07:16:13.398Z,7.10
2019-05-06T07:18:47.136Z,7.20
2019-05-06T07:21:46.976Z,7.30
2019-05-06T07:24:17.552Z,7.60
2019-05-06T07:26:52.526Z,7.30
2019-05-06T07:29:26.367Z,7.20
2019-05-06T07:31:55.262Z,7.70
2019-05-06T07:34:27.486Z,7.70
2019-05-06T07:36:59.347Z,7.40
2019-05-06T07:39:33.277Z,7.70
2019-05-06T07:42:06.501Z,7.80
2019-05-06T07:44:56.229Z,7.80
2019-05-06T07:47:45.074Z,7.80
2019-05-06T07:50:16.011Z,8.00
2019-05-06T07:53:04.218Z,8.10
2019-05-06T07:55:36.363Z,7.90
2019-05-06T07:58:08.166Z,8.00
2019-05-06T08:00:39.369Z,8.10
2019-05-06T08:03:10.082Z,7.90
2019-05-06T08:05:54.627Z,8.40
2019-05-06T08:08:14.149Z,8.40
2019-05-06T08:10:44.587Z,8.40
2019-05-06T08:13:16.746Z,8.50
2019-05-06T08:15:47.349Z,8.50
2019-05-06T08:18:18.577Z,9.00
2019-05-06T08:20:51.988Z,9.00
2019-05-06T08:23:32.589Z,8.70
2019-05-06T08:26:12.028Z,8.70
2019-05-06T08:28:40.648Z,8.80
2019-05-06T08:31:08.695Z,8.90
2019-05-06T08:33:40.539Z,9.40
2019-05-06T08:36:15.137Z,9.30
2019-05-06T08:38:59.858Z,9.20
2019-05-06T08:41:30.309Z,9.10
2019-05-06T08:44:02.909Z,8.80
2019-05-06T08:46:33.700Z,8.80
2019-05-06T08:49:04.621Z,8.80
2019-05-06T08:51:52.899Z,8.60
2019-05-06T08:54:43.981Z,9.10
2019-05-06T08:57:15.632Z,9.10
2019-05-06T08:59:50.881Z,9.60
2019-05-06T09:02:22.933Z,9.10
2019-05-06T09:04:55.442Z,9.10
2019-05-06T09:07:26.720Z,9.10
2019-05-06T09:10:02.651Z,8.90
2019-05-06T09:12:33.084Z,8.80
2019-05-06T09:15:03.882Z,8.90
2019-05-06T09:17:36.206Z,9.20
2019-05-06T09:20:07.014Z,9.70
2019-05-06T09:22:38.932Z,9.60
2019-05-06T09:25:12.856Z,9.60
2019-05-06T09:28:03.066Z,10.10
2019-05-06T09:30:48.891Z,10.10
2019-05-06T09:33:22.818Z,10.20
2019-05-06T09:35:54.642Z,10.10
2019-05-06T09:38:28.232Z,9.90
2019-05-06T09:41:04.785Z,10.40
2019-05-06T09:43:35.307Z,10.60
2019-05-06T09:46:07.362Z,10.60
2019-05-06T09:48:56.831Z,10.50
2019-05-06T09:51:28.782Z,10.30
2019-05-06T09:54:08.654Z,10.50
2019-05-06T09:56:44.217Z,10.20
2019-05-06T09:59:14.737Z,10.30
2019-05-06T10:01:46.188Z,10.50
2019-05-06T10:04:17.735Z,10.50
2019-05-06T10:06:57.288Z,10.50
2019-05-06T10:09:24.860Z,10.10
2019-05-06T10:11:55.445Z,10.40
2019-05-06T10:14:28.154Z,10.10
2019-05-06T10:16:59.446Z,10.40
2019-05-06T10:19:32.102Z,10.60
2019-05-06T10:22:03.603Z,10.70
2019-05-06T10:24:36.096Z,10.60
2019-05-06T10:27:06.810Z,10.60
2019-05-06T10:30:06.427Z,10.50
2019-05-06T10:32:53.866Z,10.40
2019-05-06T10:35:27.758Z,10.30
2019-05-06T10:38:17.234Z,10.10
2019-05-06T10:41:02.876Z,9.80
2019-05-06T10:43:46.000Z,9.60
2019-05-06T10:46:17.187Z,9.30
2019-05-06T10:48:52.542Z,9.60
2019-05-06T10:51:42.618Z,9.20
2019-05-06T10:54:14.218Z,9.20
2019-05-06T10:57:02.244Z,9.20
2019-05-06T10:59:33.230Z,9.20
2019-05-06T11:02:23.103Z,9.50
2019-05-06T11:04:54.264Z,9.60
2019-05-06T11:07:31.283Z,9.60
2019-05-06T11:09:58.790Z,9.70
2019-05-06T11:12:32.587Z,9.60
2019-05-06T11:15:03.760Z,10.10
2019-05-06T11:17:36.561Z,9.90
2019-05-06T11:20:10.616Z,10.20
2019-05-06T11:22:43.362Z,10.20
2019-05-06T11:25:14.890Z,10.00
2019-05-06T11:27:45.520Z,10.00
2019-05-06T11:30:33.796Z,10.30
2019-05-06T11:33:09.720Z,10.40
2019-05-06T11:36:08.676Z,10.20
2019-05-06T11:38:42.945Z,10.30
2019-05-06T11:41:13.942Z,10.10
2019-05-06T11:43:45.357Z,10.30
2019-05-06T11:46:17.623Z,9.90
2019-05-06T11:48:48.079Z,10.20
2019-05-06T11:51:20.166Z,10.20
2019-05-06T11:53:53.849Z,10.30
2019-05-06T11:56:23.147Z,10.60
2019-05-06T11:58:55.194Z,10.60
2019-05-06T12:01:39.690Z,10.60
2019-05-06T12:04:10.043Z,10.70
2019-05-06T12:06:43.240Z,10.90
2019-05-06T12:09:17.392Z,11.20
2019-05-06T12:11:48.178Z,11.50
2019-05-06T12:14:18.586Z,11.70
2019-05-06T12:16:50.147Z,11.50
2019-05-06T12:19:22.550Z,11.40
2019-05-06T12:21:54.024Z,11.00
2019-05-06T12:24:24.415Z,11.00
2019-05-06T12:26:55.855Z,11.00
2019-05-06T12:29:27.391Z,10.90
2019-05-06T12:32:12.866Z,10.90
2019-05-06T12:34:43.638Z,10.90
2019-05-06T12:37:15.832Z,10.80
2019-05-06T12:39:53.360Z,10.60
2019-05-06T12:42:33.852Z,10.70
2019-05-06T12:45:23.174Z,10.40
2019-05-06T12:48:05.503Z,10.60
2019-05-06T12:50:36.323Z,10.50
2019-05-06T12:53:07.106Z,10.10
2019-05-06T12:55:38.254Z,10.10
2019-05-06T12:58:13.366Z,10.20
2019-05-06T13:00:44.985Z,10.10
2019-05-06T13:03:14.968Z,10.00
2019-05-06T13:05:47.270Z,10.00
2019-05-06T13:08:19.839Z,10.10
2019-05-06T13:10:50.008Z,10.00
2019-05-06T13:13:22.462Z,10.10
2019-05-06T13:15:52.980Z,10.10
2019-05-06T13:18:23.613Z,10.10
2019-05-06T13:20:54.295Z,9.90
2019-05-06T13:23:57.153Z,10.00
2019-05-06T13:26:27.890Z,9.90
2019-05-06T13:29:04.307Z,9.90
2019-05-06T13:31:34.967Z,9.90
2019-05-06T13:34:16.666Z,9.90
2019-05-06T13:36:48.448Z,10.20
2019-05-06T13:39:23.472Z,10.00
2019-05-06T13:41:54.687Z,10.00
2019-05-06T13:44:25.537Z,10.30
2019-05-06T13:46:56.244Z,10.00
2019-05-06T13:49:56.975Z,10.00
2019-05-06T13:52:32.450Z,10.00
2019-05-06T13:55:03.221Z,10.10
2019-05-06T13:57:35.311Z,10.30
2019-05-06T14:00:06.319Z,10.50
2019-05-06T14:02:53.186Z,10.50
2019-05-06T14:05:23.385Z,10.50
2019-05-06T14:07:54.208Z,10.40
2019-05-06T14:10:27.149Z,10.40
2019-05-06T14:12:59.071Z,10.90
2019-05-06T14:15:29.858Z,11.00
2019-05-06T14:18:02.845Z,10.90
2019-05-06T14:20:35.526Z,11.00
2019-05-06T14:23:06.226Z,11.00
2019-05-06T14:25:54.450Z,10.80
2019-05-06T14:28:32.387Z,10.90
2019-05-06T14:31:06.656Z,10.70
2019-05-06T14:33:37.067Z,10.60
2019-05-06T14:36:12.667Z,10.40
2019-05-06T14:38:43.230Z,10.60
2019-05-06T14:41:18.088Z,10.50
2019-05-06T14:43:49.686Z,10.40
2019-05-06T14:46:23.200Z,10.00
2019-05-06T14:48:53.639Z,10.30
2019-05-06T14:51:25.228Z,9.90
2019-05-06T14:53:56.783Z,10.40
2019-05-06T14:56:45.918Z,10.00
2019-05-06T14:59:16.758Z,10.40
2019-05-06T15:01:47.132Z,10.20
2019-05-06T15:04:17.499Z,10.00
2019-05-06T15:06:48.401Z,10.10
2019-05-06T15:09:22.638Z,9.90
2019-05-06T15:11:53.601Z,10.00
2019-05-06T15:14:24.018Z,10.00
2019-05-06T15:16:54.871Z,10.00
2019-05-06T15:19:28.372Z,9.50
2019-05-06T15:22:02.333Z,9.70
2019-05-06T15:24:33.165Z,9.60
2019-05-06T15:27:03.561Z,9.60
2019-05-06T15:29:35.525Z,9.20
2019-05-06T15:32:29.004Z,9.30
2019-05-06T15:35:23.257Z,8.70
2019-05-06T15:38:02.119Z,8.70
2019-05-06T15:40:36.524Z,8.40
2019-05-06T15:43:06.734Z,8.50
2019-05-06T15:45:40.079Z,8.40
2019-05-06T15:48:12.734Z,8.50
2019-05-06T15:50:45.694Z,8.40
2019-05-06T15:53:17.584Z,8.40
2019-05-06T15:55:53.303Z,8.10
2019-05-06T15:58:24.693Z,8.10
2019-05-06T16:00:55.329Z,8.00
2019-05-06T16:03:26.217Z,8.40
2019-05-06T16:05:56.982Z,8.30
2019-05-06T16:08:29.521Z,8.40
2019-05-06T16:11:03.061Z,8.30
2019-05-06T16:13:33.661Z,8.30
2019-05-06T16:16:07.073Z,8.20
2019-05-06T16:18:37.520Z,8.30
2019-05-06T16:21:09.492Z,8.40
2019-05-06T16:23:44.534Z,8.40
2019-05-06T16:26:15.231Z,8.70
2019-05-06T16:28:45.794Z,8.70
2019-05-06T16:31:16.209Z,8.80
2019-05-06T16:33:46.520Z,9.30
2019-05-06T16:36:17.154Z,9.00
2019-05-06T16:38:52.523Z,9.10
2019-05-06T16:41:26.609Z,9.30
2019-05-06T16:43:57.994Z,9.10
2019-05-06T16:46:28.690Z,8.80
2019-05-06T16:48:59.226Z,8.70
2019-05-06T16:51:32.562Z,8.90
2019-05-06T16:54:03.049Z,8.80
2019-05-06T16:56:44.700Z,8.70
2019-05-06T16:59:16.155Z,8.80
2019-05-06T17:01:46.818Z,8.80
2019-05-06T17:04:42.799Z,8.80
2019-05-06T17:07:13.186Z,8.80
2019-05-06T17:09:43.602Z,9.20
2019-05-06T17:12:14.438Z,8.80
2019-05-06T17:14:46.356Z,8.90
2019-05-06T17:17:17.158Z,9.00
2019-05-06T17:19:47.558Z,9.00
2019-05-06T17:22:18.014Z,9.20
2019-05-06T17:24:48.825Z,9.10
2019-05-06T17:27:23.441Z,9.10
2019-05-06T17:30:00.310Z,8.80
2019-05-06T17:32:41.910Z,8.60
2019-05-06T17:35:12.734Z,8.70
2019-05-06T17:38:05.834Z,8.80
2019-05-06T17:40:36.662Z,8.90
2019-05-06T17:43:07.536Z,8.80
2019-05-06T17:46:02.886Z,8.50
2019-05-06T17:48:38.301Z,8.80
2019-05-06T17:51:14.135Z,8.70
2019-05-06T17:53:52.245Z,8.60
2019-05-06T17:56:22.842Z,8.80
2019-05-06T17:58:53.432Z,8.70
2019-05-06T18:01:32.406Z,8.80
2019-05-06T18:04:06.110Z,8.70
2019-05-06T18:06:38.954Z,8.70
2019-05-06T18:09:12.974Z,8.80
2019-05-06T18:11:58.475Z,8.70
2019-05-06T18:14:23.021Z,8.80
2019-05-06T18:16:55.122Z,8.60
2019-05-06T18:19:25.738Z,8.70
2019-05-06T18:21:56.770Z,8.70
2019-05-06T18:24:30.017Z,8.80
2019-05-06T18:27:02.741Z,8.40
2019-05-06T18:29:34.881Z,8.40
2019-05-06T18:32:07.053Z,8.40
2019-05-06T18:34:42.199Z,8.40
2019-05-06T18:37:13.559Z,8.70
2019-05-06T18:39:43.939Z,8.70
2019-05-06T18:42:19.846Z,8.80
2019-05-06T18:44:47.978Z,8.70
2019-05-06T18:47:19.843Z,8.40
2019-05-06T18:49:52.358Z,8.40
2019-05-06T18:52:25.242Z,8.40
2019-05-06T18:54:57.481Z,8.70
2019-05-06T18:57:28.143Z,8.50
2019-05-06T18:59:58.846Z,8.50
2019-05-06T19:02:29.586Z,8.50
2019-05-06T19:05:06.605Z,8.40
2019-05-06T19:07:39.549Z,8.50
2019-05-06T19:10:19.169Z,8.50
2019-05-06T19:12:49.931Z,8.50
2019-05-06T19:15:23.424Z,8.50
2019-05-06T19:17:53.925Z,8.40
2019-05-06T19:20:24.922Z,8.40
2019-05-06T19:22:58.278Z,8.20
2019-05-06T19:25:28.691Z,8.30
2019-05-06T19:28:02.216Z,8.50
2019-05-06T19:30:37.365Z,8.50
2019-05-06T19:33:12.389Z,8.50
2019-05-06T19:35:42.850Z,8.40
2019-05-06T19:38:13.652Z,8.30
2019-05-06T19:40:45.411Z,8.40
2019-05-06T19:43:17.619Z,8.50
2019-05-06T19:45:48.358Z,8.40
2019-05-06T19:48:19.174Z,8.10
2019-05-06T19:50:52.257Z,8.30
2019-05-06T19:53:24.212Z,8.40
2019-05-06T19:55:54.759Z,7.90
2019-05-06T19:58:26.714Z,8.10
2019-05-06T20:00:57.440Z,8.30
2019-05-06T20:03:32.703Z,8.20
2019-05-06T20:06:34.377Z,8.30
2019-05-06T20:09:24.267Z,7.90
2019-05-06T20:11:57.749Z,8.00
2019-05-06T20:14:28.138Z,8.10
2019-05-06T20:16:58.797Z,8.00
2019-05-06T20:19:33.860Z,8.00
2019-05-06T20:22:04.947Z,8.10
2019-05-06T20:24:36.482Z,7.90
2019-05-06T20:27:06.845Z,8.00
2019-05-06T20:29:39.049Z,7.90
2019-05-06T20:32:12.206Z,8.30
2019-05-06T20:34:42.990Z,8.10
2019-05-06T20:37:15.190Z,7.90
2019-05-06T20:39:45.942Z,8.10
2019-05-06T20:42:17.885Z,8.00
2019-05-06T20:44:52.368Z,8.00
2019-05-06T20:47:24.136Z,8.10
2019-05-06T20:49:54.652Z,8.00
2019-05-06T20:52:26.190Z,7.90
2019-05-06T20:54:59.766Z,8.00
2019-05-06T20:57:30.707Z,8.10
2019-05-06T21:00:06.957Z,8.00
2019-05-06T21:02:42.579Z,7.80
2019-05-06T21:05:14.989Z,8.10
2019-05-06T21:07:46.478Z,7.90
2019-05-06T21:10:19.160Z,7.80
2019-05-06T21:12:49.853Z,7.50
2019-05-06T21:15:22.730Z,7.70
2019-05-06T21:17:54.106Z,7.70
2019-05-06T21:20:26.253Z,8.00
2019-05-06T21:22:57.657Z,7.80
2019-05-06T21:25:28.040Z,7.70
2019-05-06T21:27:58.688Z,8.00
2019-05-06T21:30:32.356Z,7.80
2019-05-06T21:33:05.673Z,8.10
2019-05-06T21:35:37.312Z,7.90
2019-05-06T21:38:07.789Z,8.00
2019-05-06T21:40:38.172Z,7.50
2019-05-06T21:43:09.735Z,8.00
2019-05-06T21:45:42.396Z,7.80
2019-05-06T21:48:13.884Z,7.50
2019-05-06T21:50:46.787Z,7.70
2019-05-06T21:53:17.193Z,7.40
2019-05-06T21:55:49.100Z,7.50
2019-05-06T21:58:23.179Z,7.20
2019-05-06T22:01:05.963Z,7.40
2019-05-06T22:03:39.078Z,7.40
2019-05-06T22:06:10.339Z,7.50
2019-05-06T22:08:42.392Z,7.40
2019-05-06T22:11:14.225Z,7.40
2019-05-06T22:13:57.872Z,7.50
2019-05-06T22:16:18.190Z,7.60
2019-05-06T22:18:49.566Z,7.40
2019-05-06T22:21:24.360Z,7.80
2019-05-06T22:23:59.089Z,7.50
2019-05-06T22:26:29.786Z,7.40
2019-05-06T22:29:02.045Z,7.50
2019-05-06T22:31:34.055Z,7.50
2019-05-06T22:34:05.809Z,7.50
2019-05-06T22:36:36.531Z,7.10
2019-05-06T22:39:07.482Z,7.50
2019-05-06T22:41:41.360Z,7.40
2019-05-06T22:44:17.137Z,7.10
2019-05-06T22:46:48.992Z,7.20
2019-05-06T22:49:19.398Z,7.40
2019-05-06T22:51:52.019Z,7.20
2019-05-06T22:54:24.618Z,7.30
2019-05-06T22:56:56.113Z,7.10
2019-05-06T22:59:26.578Z,7.40
2019-05-06T23:02:16.536Z,7.40
2019-05-06T23:04:49.167Z,7.10
2019-05-06T23:07:19.557Z,7.10
2019-05-06T23:09:52.886Z,7.40
2019-05-06T23:12:25.082Z,7.20
2019-05-06T23:14:55.562Z,7.20
2019-05-06T23:17:26.368Z,7.40
2019-05-06T23:19:56.863Z,7.20
2019-05-06T23:22:28.383Z,7.20
2019-05-06T23:24:58.763Z,7.20
2019-05-06T23:27:30.938Z,6.90
2019-05-06T23:30:03.148Z,7.20
2019-05-06T23:32:34.383Z,6.80
2019-05-06T23:35:07.677Z,6.90
2019-05-06T23:38:13.688Z,7.00
2019-05-06T23:41:21.935Z,7.10
2019-05-06T23:44:35.886Z,6.90
2019-05-06T23:47:37.744Z,7.10
2019-05-06T23:50:44.194Z,7.00
2019-05-06T23:53:52.305Z,6.90
2019-05-06T23:56:42.895Z,7.10
2019-05-06T23:59:16.405Z,6.80
